Time;durP1;ratioP1;P1;durP2;ratioP2;P2;SDS_P1;SDS_P2;PMS_P1;PMS_P2;Temp;Humidity;BMP_temperature;BMP_pressure;BME280_temperature;BME280_humidity;BME280_pressure;Samples;Min_cycle;Max_cycle;Signal;HPM_P1;HPM_P2
2023/11/01 00:01:26;;;;;;;3.15;1.35;;;7.80;99.90;;;;;;5007218;28;20033;-75
2023/11/01 00:03:51;;;;;;;2.95;1.40;;;7.70;99.90;;;;;;5006888;28;20109;-75
2023/11/01 00:06:17;;;;;;;2.65;1.20;;;7.80;99.90;;;;;;5011063;28;20026;-74
2023/11/01 00:08:43;;;;;;;3.38;1.52;;;7.90;99.90;;;;;;5005783;28;20050;-75
2023/11/01 00:11:08;;;;;;;3.15;1.17;;;7.90;99.90;;;;;;5007489;28;20559;-75
2023/11/01 00:13:34;;;;;;;2.30;1.02;;;7.90;99.90;;;;;;5011847;28;20325;-75
2023/11/01 00:16:00;;;;;;;2.22;0.93;;;7.90;99.90;;;;;;5011219;28;20046;-75
2023/11/01 00:18:26;;;;;;;3.25;1.25;;;7.90;99.90;;;;;;5011501;28;20535;-75
2023/11/01 00:20:51;;;;;;;3.60;1.10;;;7.90;99.90;;;;;;5012640;28;20112;-74
2023/11/01 00:23:17;;;;;;;1.90;0.90;;;7.70;99.90;;;;;;5013835;28;20030;-75
2023/11/01 00:25:43;;;;;;;3.13;1.10;;;7.80;99.90;;;;;;5011597;28;20080;-75
2023/11/01 00:28:08;;;;;;;4.13;1.50;;;7.90;99.90;;;;;;5017769;28;20116;-75
2023/11/01 00:30:34;;;;;;;2.58;1.20;;;7.90;99.90;;;;;;5012323;28;20079;-74
2023/11/01 00:33:00;;;;;;;3.13;1.63;;;7.90;99.90;;;;;;5020249;28;20022;-75
2023/11/01 00:35:25;;;;;;;5.55;1.70;;;8.20;99.90;;;;;;5010304;28;20033;-75
2023/11/01 00:37:51;;;;;;;2.88;1.58;;;8.20;99.90;;;;;;5010433;28;20041;-74
2023/11/01 00:40:17;;;;;;;3.10;1.42;;;8.30;99.90;;;;;;5009456;28;20030;-74
2023/11/01 00:42:43;;;;;;;4.20;2.13;;;8.30;99.90;;;;;;5016291;28;20034;-75
2023/11/01 00:45:09;;;;;;;3.90;1.70;;;8.40;99.90;;;;;;5014222;28;20078;-75
2023/11/01 00:47:35;;;;;;;4.53;2.33;;;8.30;99.90;;;;;;5010500;28;20556;-75
2023/11/01 00:50:00;;;;;;;5.15;2.08;;;8.20;99.90;;;;;;5011616;28;20034;-74
2023/11/01 00:52:26;;;;;;;8.68;3.88;;;8.00;99.90;;;;;;5009841;28;20486;-74
2023/11/01 00:54:52;;;;;;;3.95;1.70;;;7.90;99.90;;;;;;5009995;28;20399;-74
2023/11/01 00:57:19;;;;;;;2.58;1.27;;;7.90;99.90;;;;;;5011033;28;20069;-75
2023/11/01 00:59:44;;;;;;;2.85;1.33;;;7.90;99.90;;;;;;5009957;28;20431;-75
2023/11/01 01:02:10;;;;;;;2.45;1.13;;;7.90;99.90;;;;;;5010605;28;20017;-74
2023/11/01 01:04:36;;;;;;;3.42;1.92;;;7.80;99.90;;;;;;5016516;28;20029;-75
2023/11/01 01:07:01;;;;;;;3.03;1.63;;;7.70;99.90;;;;;;5012731;28;20407;-75
2023/11/01 01:09:27;;;;;;;3.08;1.10;;;7.80;99.90;;;;;;4996571;28;20459;-75
2023/11/01 01:11:53;;;;;;;3.28;1.48;;;8.00;99.90;;;;;;4990890;28;20026;-74
2023/11/01 01:14:19;;;;;;;3.28;1.30;;;8.00;99.90;;;;;;4989226;28;20455;-75
2023/11/01 01:16:46;;;;;;;5.40;1.63;;;8.00;99.90;;;;;;4989885;28;20041;-75
2023/11/01 01:19:12;;;;;;;3.28;1.63;;;8.00;99.90;;;;;;4999760;28;20026;-74
2023/11/01 01:21:37;;;;;;;6.20;1.75;;;7.90;99.90;;;;;;4990069;28;20056;-75
2023/11/01 01:24:03;;;;;;;3.47;1.45;;;8.10;99.90;;;;;;4990121;28;20492;-75
2023/11/01 01:26:30;;;;;;;3.33;1.42;;;8.10;99.90;;;;;;4991149;28;20388;-75
2023/11/01 01:28:56;;;;;;;2.92;1.48;;;8.00;99.90;;;;;;4990273;28;20031;-75
2023/11/01 01:31:22;;;;;;;3.70;1.40;;;8.00;99.90;;;;;;4995788;28;20121;-74
2023/11/01 01:33:47;;;;;;;4.40;1.63;;;7.90;99.90;;;;;;4990627;28;20110;-75
2023/11/01 01:36:13;;;;;;;2.80;1.85;;;7.90;99.90;;;;;;4991940;28;20034;-75
2023/11/01 01:38:39;;;;;;;3.30;1.60;;;7.90;99.90;;;;;;4989010;28;20026;-74
2023/11/01 01:41:05;;;;;;;3.33;1.63;;;7.80;99.90;;;;;;4990108;28;20502;-75
2023/11/01 01:43:31;;;;;;;3.95;1.77;;;7.80;99.90;;;;;;4989332;28;20061;-75
2023/11/01 01:46:11;;;;;;;4.50;1.63;;;7.90;99.90;;;;;;4991891;28;20030;-74
2023/11/01 01:48:38;;;;;;;3.30;1.67;;;8.00;99.90;;;;;;4989906;28;20034;-75
2023/11/01 01:51:05;;;;;;;2.97;1.48;;;8.10;99.90;;;;;;4989192;28;20030;-75
2023/11/01 01:53:32;;;;;;;4.82;2.03;;;8.00;99.90;;;;;;4989530;28;20033;-75
2023/11/01 01:55:59;;;;;;;3.17;1.30;;;7.90;99.90;;;;;;4993604;28;20041;-75
2023/11/01 01:58:30;;;;;;;3.40;1.50;;;7.70;99.90;;;;;;4992802;28;20030;-75
2023/11/01 02:00:56;;;;;;;3.78;1.67;;;7.70;99.90;;;;;;4991359;28;20468;-74
2023/11/01 02:03:22;;;;;;;3.70;1.98;;;7.50;99.90;;;;;;4989573;28;20026;-75
2023/11/01 02:05:48;;;;;;;3.25;1.52;;;7.80;99.90;;;;;;4998355;28;20026;-75
2023/11/01 02:08:14;;;;;;;2.85;1.40;;;7.70;99.90;;;;;;4998297;28;20057;-75
2023/11/01 02:10:41;;;;;;;4.90;1.48;;;7.60;99.90;;;;;;5010330;28;20053;-75
2023/11/01 02:13:15;;;;;;;4.50;1.50;;;7.50;99.90;;;;;;5009842;28;20028;-75
2023/11/01 02:15:43;;;;;;;4.95;1.60;;;7.40;99.90;;;;;;5011547;28;20063;-75
2023/11/01 02:18:09;;;;;;;2.88;1.10;;;7.40;99.90;;;;;;5008713;28;20112;-75
2023/11/01 02:20:36;;;;;;;3.35;1.00;;;7.30;99.90;;;;;;5010629;28;20026;-75
2023/11/01 02:23:07;;;;;;;3.22;1.42;;;7.30;99.90;;;;;;5009305;28;20112;-74
2023/11/01 02:25:33;;;;;;;3.88;1.58;;;7.40;99.90;;;;;;5010363;28;20025;-75
2023/11/01 02:27:59;;;;;;;2.95;1.33;;;7.40;99.90;;;;;;5008656;28;20569;-75
2023/11/01 02:30:24;;;;;;;5.22;1.58;;;7.50;99.90;;;;;;5018620;28;20040;-75
2023/11/01 02:32:51;;;;;;;2.60;1.40;;;7.80;99.90;;;;;;5008067;28;20484;-75
2023/11/01 02:35:18;;;;;;;2.92;0.90;;;7.60;99.90;;;;;;5010782;28;20172;-74
2023/11/01 02:37:44;;;;;;;2.40;1.10;;;7.40;99.90;;;;;;5011497;28;20038;-74
2023/11/01 02:40:10;;;;;;;2.20;1.20;;;7.20;99.90;;;;;;5010045;28;20029;-75
2023/11/01 02:42:40;;;;;;;2.22;1.10;;;7.10;99.90;;;;;;5010835;28;20108;-75
2023/11/01 02:45:09;;;;;;;2.53;1.05;;;7.00;99.90;;;;;;5008515;28;20033;-75
2023/11/01 02:47:38;;;;;;;4.40;1.38;;;7.20;99.90;;;;;;5008805;28;20026;-74
2023/11/01 02:50:05;;;;;;;3.38;1.10;;;7.20;99.90;;;;;;5010165;28;20034;-75
2023/11/01 02:52:35;;;;;;;2.25;1.00;;;7.20;99.90;;;;;;5008238;28;20030;-74
2023/11/01 02:55:12;;;;;;;2.45;1.15;;;7.20;99.90;;;;;;5007894;28;20042;-74
2023/11/01 02:57:39;;;;;;;3.30;1.33;;;7.20;99.90;;;;;;5015029;28;20038;-75
2023/11/01 03:00:07;;;;;;;3.63;1.33;;;7.10;99.90;;;;;;5011793;28;20038;-75
2023/11/01 03:02:34;;;;;;;2.90;1.02;;;7.10;99.90;;;;;;5017158;28;20056;-74
2023/11/01 03:04:59;;;;;;;2.97;1.40;;;7.10;99.90;;;;;;5013198;28;20084;-74
2023/11/01 03:07:25;;;;;;;2.70;1.27;;;7.10;99.90;;;;;;5016166;28;20073;-75
2023/11/01 03:09:51;;;;;;;2.88;1.45;;;7.20;99.90;;;;;;5011867;28;20030;-75
2023/11/01 03:12:16;;;;;;;3.85;1.35;;;7.20;99.90;;;;;;5012369;28;20109;-74
2023/11/01 03:14:42;;;;;;;3.17;1.08;;;7.30;99.90;;;;;;5018733;28;20037;-75
2023/11/01 03:17:09;;;;;;;2.67;1.50;;;7.30;99.90;;;;;;5016294;28;20467;-74
2023/11/01 03:19:38;;;;;;;2.53;1.10;;;7.30;99.90;;;;;;5011634;28;20029;-75
2023/11/01 03:22:04;;;;;;;3.28;1.10;;;7.20;99.90;;;;;;5012531;28;20040;-74
2023/11/01 03:24:30;;;;;;;2.47;1.05;;;7.30;99.90;;;;;;5012905;28;20041;-74
2023/11/01 03:26:57;;;;;;;3.28;1.40;;;7.10;99.90;;;;;;5014599;28;20044;-75
2023/11/01 03:29:24;;;;;;;2.75;1.10;;;7.20;99.90;;;;;;5014612;28;20037;-74
2023/11/01 03:31:49;;;;;;;2.50;1.00;;;7.20;99.90;;;;;;5012760;28;20475;-75
2023/11/01 03:34:15;;;;;;;3.78;1.30;;;7.20;99.90;;;;;;5012950;28;20056;-74
2023/11/01 03:36:41;;;;;;;3.08;1.20;;;7.20;99.90;;;;;;5012968;28;20080;-74
2023/11/01 03:39:08;;;;;;;3.33;1.38;;;7.00;99.90;;;;;;5012711;28;20026;-74
2023/11/01 03:41:41;;;;;;;4.63;1.52;;;7.00;99.90;;;;;;5011076;28;20026;-74
2023/11/01 03:44:07;;;;;;;2.92;1.33;;;7.10;99.90;;;;;;5014187;28;20104;-74
2023/11/01 03:46:33;;;;;;;3.00;1.25;;;7.20;99.90;;;;;;5013315;28;20527;-75
2023/11/01 03:48:59;;;;;;;3.60;1.30;;;7.20;99.90;;;;;;5019690;28;20026;-74
2023/11/01 03:51:26;;;;;;;3.65;1.45;;;7.10;99.90;;;;;;5011317;28;20022;-75
2023/11/01 03:53:52;;;;;;;2.28;1.15;;;7.10;99.90;;;;;;5015234;28;20025;-75
2023/11/01 03:56:18;;;;;;;2.13;1.20;;;7.00;99.90;;;;;;5010426;28;20037;-74
2023/11/01 03:58:44;;;;;;;2.60;1.30;;;7.00;99.90;;;;;;5011021;28;20030;-74
2023/11/01 04:01:10;;;;;;;2.95;1.40;;;6.90;99.90;;;;;;5016046;28;20026;-74
2023/11/01 04:03:36;;;;;;;4.70;1.40;;;6.90;99.90;;;;;;5008511;28;20388;-74
2023/11/01 04:06:02;;;;;;;2.67;1.13;;;6.90;99.90;;;;;;5005583;28;20064;-75
2023/11/01 04:08:27;;;;;;;4.47;1.10;;;6.90;99.90;;;;;;5011731;28;20050;-75
2023/11/01 04:10:53;;;;;;;4.45;1.63;;;6.90;99.90;;;;;;5006155;28;20084;-74
2023/11/01 04:13:19;;;;;;;3.15;1.40;;;7.10;99.90;;;;;;5009906;28;20033;-74
2023/11/01 04:15:45;;;;;;;3.13;1.25;;;7.10;99.90;;;;;;5009814;28;20418;-75
2023/11/01 04:18:11;;;;;;;2.72;1.20;;;7.00;99.90;;;;;;5013287;28;20088;-75
2023/11/01 04:20:36;;;;;;;3.25;1.38;;;7.00;99.90;;;;;;5005531;28;20044;-74
2023/11/01 04:23:02;;;;;;;4.32;1.13;;;7.00;99.90;;;;;;5010159;28;20034;-74
2023/11/01 04:25:28;;;;;;;3.00;1.13;;;7.00;99.90;;;;;;5011130;28;20486;-74
2023/11/01 04:27:55;;;;;;;4.60;1.30;;;7.00;99.90;;;;;;5009712;28;20076;-74
2023/11/01 04:30:21;;;;;;;2.88;1.17;;;7.10;99.90;;;;;;5015689;28;20029;-75
2023/11/01 04:32:48;;;;;;;2.17;0.98;;;7.10;99.90;;;;;;5009463;28;20475;-74
2023/11/01 04:35:14;;;;;;;3.83;1.40;;;7.10;99.90;;;;;;5008975;28;20037;-75
2023/11/01 04:37:41;;;;;;;2.25;1.05;;;7.20;99.90;;;;;;5013327;28;20033;-75
2023/11/01 04:40:08;;;;;;;2.25;1.15;;;7.30;99.90;;;;;;5012385;28;20088;-74
2023/11/01 04:42:40;;;;;;;2.08;1.00;;;7.20;99.90;;;;;;5013031;28;20201;-75
2023/11/01 04:45:07;;;;;;;7.28;1.67;;;7.00;99.90;;;;;;5008862;28;20040;-74
2023/11/01 04:47:35;;;;;;;2.65;1.05;;;7.00;99.90;;;;;;5008694;28;20387;-75
2023/11/01 04:50:08;;;;;;;1.88;1.00;;;7.00;99.90;;;;;;5008590;28;20129;-74
2023/11/01 04:52:34;;;;;;;2.50;0.98;;;6.90;99.90;;;;;;5015222;28;20033;-75
2023/11/01 04:55:00;;;;;;;2.92;1.20;;;6.80;99.90;;;;;;5009491;28;20304;-75
2023/11/01 04:57:26;;;;;;;4.20;0.77;;;6.90;99.90;;;;;;5008388;28;20037;-75
2023/11/01 04:59:52;;;;;;;2.60;1.10;;;6.70;99.90;;;;;;5011232;28;20072;-74
2023/11/01 05:02:17;;;;;;;3.00;0.80;;;6.40;99.90;;;;;;5005937;28;20554;-75
2023/11/01 05:04:43;;;;;;;1.75;0.95;;;6.40;99.90;;;;;;5014786;28;20116;-74
2023/11/01 05:07:09;;;;;;;2.90;0.95;;;6.40;99.90;;;;;;5010129;28;20037;-74
2023/11/01 05:09:35;;;;;;;2.22;0.90;;;6.40;99.90;;;;;;5005584;28;20037;-74
2023/11/01 05:12:00;;;;;;;1.75;0.98;;;6.30;99.90;;;;;;5005944;28;20113;-75
2023/11/01 05:14:26;;;;;;;1.63;0.85;;;6.20;99.90;;;;;;5014218;28;20037;-75
2023/11/01 05:16:52;;;;;;;3.30;1.10;;;6.30;99.90;;;;;;5005843;28;20668;-74
2023/11/01 05:19:19;;;;;;;1.95;0.80;;;6.30;99.90;;;;;;5004645;28;20045;-75
2023/11/01 05:21:45;;;;;;;1.42;0.80;;;6.40;99.90;;;;;;5005215;28;20030;-75
2023/11/01 05:24:11;;;;;;;3.83;0.93;;;6.30;99.90;;;;;;5008781;28;20055;-74
2023/11/01 05:26:36;;;;;;;2.60;1.08;;;6.20;99.90;;;;;;5006600;28;20084;-74
2023/11/01 05:29:05;;;;;;;3.97;1.10;;;6.40;99.90;;;;;;5005299;28;20061;-75
2023/11/01 05:31:34;;;;;;;2.88;0.85;;;6.50;99.90;;;;;;5007396;28;20087;-73
2023/11/01 05:34:01;;;;;;;4.25;0.95;;;6.70;99.90;;;;;;5007353;28;20046;-73
2023/11/01 05:36:27;;;;;;;2.25;0.80;;;6.60;99.90;;;;;;5011905;28;20447;-73
2023/11/01 05:38:53;;;;;;;1.95;0.80;;;6.60;99.90;;;;;;5004955;28;20057;-73
2023/11/01 05:41:19;;;;;;;4.45;1.17;;;6.50;99.90;;;;;;5004333;28;20042;-73
2023/11/01 05:43:45;;;;;;;1.40;0.80;;;6.40;99.90;;;;;;5011756;28;20527;-73
2023/11/01 05:46:10;;;;;;;2.65;1.05;;;6.30;99.90;;;;;;5012386;28;20174;-73
2023/11/01 05:48:36;;;;;;;4.70;1.30;;;6.50;99.90;;;;;;5011697;28;20116;-74
2023/11/01 05:51:03;;;;;;;2.50;0.95;;;6.70;99.90;;;;;;5012372;28;20037;-73
2023/11/01 05:53:31;;;;;;;5.65;1.17;;;6.90;99.90;;;;;;5005429;28;20044;-73
2023/11/01 05:55:59;;;;;;;2.85;1.50;;;6.80;99.90;;;;;;5010306;28;20079;-73
2023/11/01 05:58:24;;;;;;;2.67;1.20;;;6.70;99.90;;;;;;5008817;28;20029;-73
2023/11/01 06:00:50;;;;;;;1.50;0.80;;;6.60;99.90;;;;;;5006911;28;20454;-73
2023/11/01 06:03:16;;;;;;;1.55;0.68;;;6.60;99.90;;;;;;5013593;28;20026;-73
2023/11/01 06:05:42;;;;;;;7.03;0.98;;;6.40;99.90;;;;;;5009516;28;20099;-73
2023/11/01 06:08:11;;;;;;;2.03;0.82;;;6.30;99.90;;;;;;5017038;28;20629;-73
2023/11/01 06:10:37;;;;;;;2.78;0.90;;;6.50;99.90;;;;;;5014486;28;20590;-73
2023/11/01 06:13:03;;;;;;;1.88;0.80;;;6.70;99.90;;;;;;5013488;28;20030;-73
2023/11/01 06:15:29;;;;;;;2.60;0.82;;;6.60;99.90;;;;;;5012736;28;20129;-73
2023/11/01 06:17:56;;;;;;;2.25;0.82;;;6.70;99.90;;;;;;5015836;28;20116;-73
2023/11/01 06:20:22;;;;;;;2.72;1.10;;;6.70;99.90;;;;;;5011482;28;20703;-73
2023/11/01 06:22:48;;;;;;;3.72;1.35;;;6.60;99.90;;;;;;5012456;28;20026;-73
2023/11/01 06:25:16;;;;;;;4.38;1.90;;;6.50;99.90;;;;;;5014031;28;20112;-73
2023/11/01 06:27:42;;;;;;;3.13;1.33;;;6.40;99.90;;;;;;5013077;28;20021;-73
2023/11/01 06:30:08;;;;;;;3.67;1.52;;;6.40;99.90;;;;;;5006113;28;20117;-73
2023/11/01 06:32:37;;;;;;;4.70;0.95;;;6.30;99.90;;;;;;5013415;28;20029;-73
2023/11/01 06:35:04;;;;;;;3.95;1.00;;;6.20;99.90;;;;;;5011316;28;20041;-73
2023/11/01 06:37:30;;;;;;;2.38;0.90;;;6.20;99.90;;;;;;5008046;28;20517;-73
2023/11/01 06:39:57;;;;;;;1.40;0.75;;;6.40;99.90;;;;;;5017573;28;20029;-73
2023/11/01 06:42:22;;;;;;;1.95;0.90;;;6.50;99.90;;;;;;5008692;28;20372;-74
2023/11/01 06:44:48;;;;;;;2.95;0.80;;;6.60;99.90;;;;;;5016426;28;20038;-73
2023/11/01 06:47:14;;;;;;;2.08;0.88;;;6.90;99.90;;;;;;5012550;28;20025;-73
2023/11/01 06:49:40;;;;;;;1.75;0.90;;;6.90;99.90;;;;;;5019780;28;20022;-73
2023/11/01 06:52:07;;;;;;;2.35;0.90;;;7.00;99.90;;;;;;5008379;28;20076;-73
2023/11/01 06:54:34;;;;;;;2.33;1.20;;;7.00;99.90;;;;;;5007140;28;20499;-73
2023/11/01 06:57:00;;;;;;;3.80;1.10;;;6.90;99.90;;;;;;5006636;28;20041;-73
2023/11/01 06:59:25;;;;;;;3.08;1.10;;;6.80;99.90;;;;;;5012290;28;20500;-73
2023/11/01 07:01:51;;;;;;;2.05;0.80;;;6.70;99.90;;;;;;5010362;28;20105;-73
2023/11/01 07:04:17;;;;;;;5.55;1.08;;;6.90;99.90;;;;;;5005050;28;20056;-73
2023/11/01 07:06:43;;;;;;;1.67;1.02;;;7.00;99.90;;;;;;5010551;28;20109;-73
2023/11/01 07:09:09;;;;;;;3.50;1.27;;;7.00;99.90;;;;;;5008004;28;20137;-73
2023/11/01 07:11:38;;;;;;;4.28;1.17;;;7.10;99.90;;;;;;5013527;28;20108;-73
2023/11/01 07:14:04;;;;;;;2.40;1.13;;;7.20;99.90;;;;;;5005533;28;20044;-73
2023/11/01 07:16:31;;;;;;;4.45;1.35;;;7.30;99.90;;;;;;5005764;28;20399;-73
2023/11/01 07:19:00;;;;;;;5.65;1.40;;;7.30;99.90;;;;;;5006698;28;20030;-73
2023/11/01 07:21:26;;;;;;;5.10;1.98;;;7.30;99.90;;;;;;5015013;28;20097;-73
2023/11/01 07:23:51;;;;;;;2.58;1.40;;;7.30;99.90;;;;;;5015010;28;20530;-73
2023/11/01 07:26:17;;;;;;;2.00;1.10;;;7.30;99.90;;;;;;5007388;28;20367;-73
2023/11/01 07:28:46;;;;;;;3.80;1.02;;;7.40;99.90;;;;;;5009740;28;20409;-74
2023/11/01 07:31:13;;;;;;;2.13;1.10;;;7.40;99.90;;;;;;5007739;28;20475;-74
2023/11/01 07:33:40;;;;;;;1.65;0.90;;;7.30;99.90;;;;;;5012210;28;20029;-73
2023/11/01 07:36:08;;;;;;;5.47;1.60;;;7.30;99.90;;;;;;5010456;28;20041;-73
2023/11/01 07:38:34;;;;;;;2.40;1.23;;;7.30;99.90;;;;;;5018746;28;20029;-74
2023/11/01 07:41:00;;;;;;;9.88;5.40;;;7.30;99.90;;;;;;5018992;28;20103;-74
2023/11/01 07:43:26;;;;;;;3.80;2.05;;;7.40;99.90;;;;;;5009754;28;20403;-73
2023/11/01 07:45:52;;;;;;;3.38;1.55;;;7.50;99.90;;;;;;5012533;28;20022;-73
2023/11/01 07:48:19;;;;;;;4.30;1.75;;;7.60;99.90;;;;;;5021355;28;20083;-73
2023/11/01 07:50:44;;;;;;;4.45;2.35;;;7.50;99.90;;;;;;5016570;28;20042;-73
2023/11/01 07:53:10;;;;;;;4.25;2.45;;;7.40;99.90;;;;;;5007868;28;20453;-73
2023/11/01 07:55:36;;;;;;;4.70;2.10;;;7.20;99.90;;;;;;5008036;28;20068;-73
2023/11/01 07:58:01;;;;;;;8.75;3.85;;;7.20;99.90;;;;;;5013871;28;20048;-73
2023/11/01 08:00:27;;;;;;;5.55;3.35;;;7.40;99.90;;;;;;4988069;28;20029;-74
2023/11/01 08:02:55;;;;;;;6.25;2.58;;;7.40;99.90;;;;;;5017444;28;20104;-74
2023/11/01 08:05:22;;;;;;;5.00;2.70;;;7.50;99.90;;;;;;5015214;28;20039;-72
2023/11/01 08:07:48;;;;;;;6.22;3.38;;;7.60;99.90;;;;;;5012661;28;20046;-73
2023/11/01 08:10:14;;;;;;;6.10;2.92;;;7.70;99.90;;;;;;5008160;28;20125;-73
2023/11/01 08:12:40;;;;;;;3.88;2.20;;;7.70;99.90;;;;;;5014892;28;20112;-73
2023/11/01 08:15:06;;;;;;;5.40;2.80;;;7.80;99.90;;;;;;5015643;28;20061;-73
2023/11/01 08:17:32;;;;;;;5.63;3.47;;;7.90;99.90;;;;;;5004198;28;20080;-73
2023/11/01 08:19:58;;;;;;;4.13;2.50;;;7.90;99.90;;;;;;5018858;28;20033;-73
2023/11/01 08:22:25;;;;;;;3.95;1.70;;;8.00;99.90;;;;;;5016361;28;20079;-73
2023/11/01 08:24:51;;;;;;;3.20;1.48;;;8.00;99.90;;;;;;5009301;28;20032;-73
2023/11/01 08:27:17;;;;;;;3.63;1.48;;;8.10;99.90;;;;;;5008255;28;20034;-73
2023/11/01 08:29:43;;;;;;;4.10;1.77;;;8.20;99.90;;;;;;5014091;28;20079;-73
2023/11/01 08:32:11;;;;;;;5.55;2.00;;;8.30;99.90;;;;;;5019836;28;20026;-73
2023/11/01 08:34:37;;;;;;;4.65;2.13;;;8.30;99.90;;;;;;5011658;28;20041;-73
2023/11/01 08:37:04;;;;;;;5.03;2.25;;;8.40;99.90;;;;;;5010029;28;20037;-73
2023/11/01 08:39:30;;;;;;;5.53;2.15;;;8.40;99.90;;;;;;5013167;28;20179;-73
2023/11/01 08:41:58;;;;;;;5.13;2.22;;;8.40;99.90;;;;;;5014588;28;20033;-73
2023/11/01 08:44:24;;;;;;;6.03;3.22;;;8.50;99.90;;;;;;5024784;28;20033;-73
2023/11/01 08:46:49;;;;;;;4.78;2.50;;;8.70;99.90;;;;;;5007849;28;20046;-73
2023/11/01 08:49:15;;;;;;;6.25;2.83;;;8.70;99.90;;;;;;5014237;28;20028;-73
2023/11/01 08:51:41;;;;;;;7.72;3.13;;;8.70;99.90;;;;;;5005659;28;20116;-73
2023/11/01 08:54:09;;;;;;;4.57;2.50;;;8.70;99.90;;;;;;5013386;28;20379;-73
2023/11/01 08:56:36;;;;;;;5.60;2.75;;;8.80;99.90;;;;;;5011474;28;20468;-73
2023/11/01 08:59:03;;;;;;;5.05;2.05;;;8.90;99.90;;;;;;5015861;28;20060;-73
2023/11/01 09:01:29;;;;;;;8.50;4.13;;;8.80;99.90;;;;;;5006878;28;20551;-73
2023/11/01 09:03:55;;;;;;;5.72;2.72;;;8.90;99.90;;;;;;5013711;28;20082;-73
2023/11/01 09:06:21;;;;;;;7.05;2.33;;;8.90;99.90;;;;;;5013372;28;20043;-73
2023/11/01 09:08:46;;;;;;;6.55;2.85;;;8.80;99.90;;;;;;5016482;28;20045;-73
2023/11/01 09:11:12;;;;;;;8.48;4.15;;;8.90;99.90;;;;;;5009089;28;20029;-73
2023/11/01 09:13:38;;;;;;;6.25;3.58;;;8.90;99.90;;;;;;5013872;28;20041;-73
2023/11/01 09:16:04;;;;;;;30.00;19.05;;;9.00;99.90;;;;;;5004808;28;20049;-73
2023/11/01 09:18:29;;;;;;;12.93;8.50;;;8.90;99.90;;;;;;5014210;28;20033;-73
2023/11/01 09:20:55;;;;;;;5.10;3.15;;;9.00;99.90;;;;;;5014111;28;20026;-73
2023/11/01 09:23:21;;;;;;;6.10;2.17;;;9.10;99.90;;;;;;5019394;28;20025;-73
2023/11/01 09:25:47;;;;;;;13.05;6.25;;;9.10;99.90;;;;;;5005719;28;20183;-73
2023/11/01 09:28:13;;;;;;;7.60;2.00;;;9.10;99.90;;;;;;5017853;28;20116;-73
2023/11/01 09:30:39;;;;;;;4.45;2.00;;;9.10;99.90;;;;;;5003661;28;20029;-73
2023/11/01 09:33:04;;;;;;;4.00;1.80;;;9.20;99.90;;;;;;5012121;28;20443;-73
2023/11/01 09:35:31;;;;;;;6.07;2.97;;;9.20;99.90;;;;;;5011464;28;20049;-73
2023/11/01 09:37:56;;;;;;;7.28;2.83;;;9.20;99.90;;;;;;5016707;28;20026;-73
2023/11/01 09:40:22;;;;;;;21.58;10.00;;;9.40;99.90;;;;;;5005443;28;20528;-73
2023/11/01 09:42:50;;;;;;;13.93;6.05;;;9.50;99.90;;;;;;5008439;28;20025;-73
2023/11/01 09:45:17;;;;;;;7.32;2.83;;;9.50;99.90;;;;;;5005962;28;20127;-74
2023/11/01 09:47:44;;;;;;;4.32;2.00;;;9.60;99.90;;;;;;5005135;28;20037;-73
2023/11/01 09:50:12;;;;;;;4.45;2.20;;;9.50;99.90;;;;;;5001501;28;20030;-74
2023/11/01 09:52:39;;;;;;;4.05;1.83;;;9.60;99.90;;;;;;5004685;28;20391;-74
2023/11/01 09:55:05;;;;;;;5.30;2.17;;;9.40;99.90;;;;;;5004025;28;20396;-73
2023/11/01 09:57:33;;;;;;;4.53;2.45;;;9.40;99.90;;;;;;5003491;28;20030;-73
2023/11/01 10:00:03;;;;;;;6.75;3.90;;;9.60;99.90;;;;;;5009720;28;21924;-74
2023/11/01 10:02:29;;;;;;;4.28;1.95;;;9.80;99.90;;;;;;5003502;28;20120;-75
2023/11/01 10:04:55;;;;;;;4.45;1.65;;;9.70;99.90;;;;;;5000963;28;20137;-74
2023/11/01 10:07:21;;;;;;;3.67;2.15;;;9.80;99.90;;;;;;5003197;28;20038;-75
2023/11/01 10:09:47;;;;;;;5.35;3.03;;;9.70;99.90;;;;;;5003666;28;20034;-75
2023/11/01 10:12:13;;;;;;;9.00;5.32;;;9.80;99.90;;;;;;5013672;28;20037;-75
2023/11/01 10:14:40;;;;;;;20.95;14.05;;;10.00;99.90;;;;;;5009765;28;20554;-74
2023/11/01 10:17:05;;;;;;;12.98;7.05;;;10.10;99.90;;;;;;5016547;28;20034;-75
2023/11/01 10:19:31;;;;;;;6.30;3.58;;;10.20;99.90;;;;;;5012340;28;20047;-76
2023/11/01 10:21:57;;;;;;;7.97;4.40;;;10.20;99.90;;;;;;5005979;28;20030;-75
2023/11/01 10:24:27;;;;;;;11.70;3.17;;;10.20;99.90;;;;;;5007541;28;20753;-75
2023/11/01 10:26:55;;;;;;;8.35;4.63;;;10.20;99.90;;;;;;5009456;28;20059;-75
2023/11/01 10:29:24;;;;;;;10.93;5.40;;;10.30;99.90;;;;;;5013775;28;20611;-75
2023/11/01 10:31:54;;;;;;;13.50;5.82;;;10.40;99.90;;;;;;5020254;28;20029;-75
2023/11/01 10:34:26;;;;;;;6.70;2.20;;;10.50;99.90;;;;;;5022786;28;20471;-75
2023/11/01 10:36:53;;;;;;;5.35;2.10;;;10.40;99.90;;;;;;5023041;28;20573;-75
2023/11/01 10:39:20;;;;;;;4.90;1.60;;;10.30;99.90;;;;;;5024064;28;20438;-75
2023/11/01 10:41:51;;;;;;;6.07;1.50;;;10.30;99.90;;;;;;5017417;28;20425;-75
2023/11/01 10:44:20;;;;;;;2.28;1.35;;;10.40;99.90;;;;;;5016752;28;20030;-75
2023/11/01 10:46:46;;;;;;;3.42;1.40;;;10.50;99.90;;;;;;5016902;28;20032;-75
2023/11/01 10:49:13;;;;;;;2.10;1.20;;;10.60;99.90;;;;;;5020655;28;20034;-76
2023/11/01 10:51:40;;;;;;;4.55;2.45;;;10.60;99.90;;;;;;5022211;28;20092;-76
2023/11/01 10:54:07;;;;;;;5.63;1.58;;;10.70;99.90;;;;;;5017811;28;20036;-76
2023/11/01 10:56:33;;;;;;;2.97;1.40;;;10.80;99.90;;;;;;5022572;28;20056;-75
2023/11/01 10:59:36;;;;;;;4.53;1.77;;;10.90;99.90;;;;;;5025031;28;20041;-76
2023/11/01 11:02:07;;;;;;;8.88;5.82;;;10.80;99.90;;;;;;5001883;28;20246;-77
2023/11/01 11:04:56;;;;;;;3.47;1.65;;;11.00;99.90;;;;;;4996665;28;21153;-78
2023/11/01 11:07:40;;;;;;;2.80;1.45;;;10.90;99.90;;;;;;5008746;28;20037;-78
2023/11/01 11:10:32;;;;;;;6.70;2.90;;;10.90;99.90;;;;;;5001470;28;20029;-78
2023/11/01 11:13:10;;;;;;;2.25;1.05;;;11.10;99.90;;;;;;4997538;28;20076;-78
2023/11/01 11:15:45;;;;;;;5.03;3.85;;;11.10;99.90;;;;;;5012996;28;20129;-78
2023/11/01 11:18:11;;;;;;;7.60;2.90;;;11.10;99.90;;;;;;5023112;28;20048;-78
2023/11/01 11:20:40;;;;;;;3.40;1.45;;;11.20;99.90;;;;;;5020360;28;20778;-78
2023/11/01 11:23:06;;;;;;;3.97;1.58;;;11.30;99.90;;;;;;5020484;28;20025;-78
2023/11/01 11:25:38;;;;;;;5.40;1.58;;;11.40;99.90;;;;;;5017418;28;20064;-77
2023/11/01 11:28:34;;;;;;;2.95;1.35;;;11.60;99.90;;;;;;5020258;28;20118;-77
2023/11/01 11:31:08;;;;;;;4.45;1.50;;;11.60;99.90;;;;;;5009507;28;20061;-77
2023/11/01 11:33:55;;;;;;;2.80;1.38;;;11.60;99.90;;;;;;5019525;28;20101;-78
2023/11/01 11:36:25;;;;;;;3.92;1.55;;;11.60;99.90;;;;;;5008329;28;20084;-78
2023/11/01 11:39:01;;;;;;;3.80;1.35;;;11.60;99.90;;;;;;5012853;28;20037;-78
2023/11/01 11:41:42;;;;;;;3.20;1.23;;;11.60;99.90;;;;;;5018522;28;20044;-77
2023/11/01 11:44:08;;;;;;;3.22;1.77;;;11.60;99.90;;;;;;5005563;28;20044;-78
2023/11/01 11:46:48;;;;;;;3.15;1.20;;;11.60;99.90;;;;;;5026816;28;20025;-77
2023/11/01 11:49:28;;;;;;;2.20;1.27;;;11.60;99.90;;;;;;5024795;28;20482;-78
2023/11/01 11:52:04;;;;;;;3.38;1.20;;;11.50;99.90;;;;;;5027347;28;20026;-78
2023/11/01 11:54:31;;;;;;;4.85;1.60;;;11.50;99.90;;;;;;5027353;28;20096;-78
2023/11/01 11:57:01;;;;;;;3.88;1.33;;;11.50;99.90;;;;;;5026162;28;20033;-77
2023/11/01 11:59:31;;;;;;;178.00;90.90;;;11.60;99.90;;;;;;5007067;28;20694;-78
2023/11/01 12:02:05;;;;;;;43.05;24.10;;;11.70;99.90;;;;;;5002774;28;20044;-77
2023/11/01 12:04:47;;;;;;;9.27;3.00;;;11.80;99.90;;;;;;5017603;28;20040;-78
2023/11/01 12:07:18;;;;;;;4.30;2.55;;;11.60;99.90;;;;;;5026929;28;20051;-76
2023/11/01 12:10:03;;;;;;;2.20;1.15;;;11.60;99.90;;;;;;5010834;28;20116;-77
2023/11/01 12:12:29;;;;;;;3.17;1.40;;;11.60;99.90;;;;;;5019561;28;20052;-74
2023/11/01 12:15:02;;;;;;;4.28;1.38;;;11.60;99.90;;;;;;5028083;28;20041;-74
2023/11/01 12:17:28;;;;;;;2.88;1.75;;;11.70;99.90;;;;;;5024774;28;20164;-75
2023/11/01 12:19:54;;;;;;;3.80;1.92;;;11.60;99.90;;;;;;5014694;28;20026;-74
2023/11/01 12:22:20;;;;;;;3.92;1.40;;;11.60;99.90;;;;;;5016918;28;20047;-75
2023/11/01 12:24:47;;;;;;;3.75;1.27;;;11.60;99.90;;;;;;5018520;28;20133;-75
2023/11/01 12:27:21;;;;;;;4.22;1.23;;;11.60;99.90;;;;;;5015704;28;20033;-76
2023/11/01 12:29:50;;;;;;;2.85;1.25;;;11.60;99.90;;;;;;5016713;28;20120;-75
2023/11/01 12:32:18;;;;;;;3.40;1.35;;;11.60;99.90;;;;;;5016251;28;20679;-75
2023/11/01 12:34:46;;;;;;;2.67;1.30;;;11.50;99.90;;;;;;5019956;28;20905;-75
2023/11/01 12:37:29;;;;;;;3.92;1.50;;;11.50;99.90;;;;;;5022602;28;20096;-75
2023/11/01 12:40:10;;;;;;;2.58;1.20;;;11.60;99.90;;;;;;5021910;28;20080;-75
2023/11/01 12:42:37;;;;;;;3.20;1.38;;;11.60;99.90;;;;;;5026199;28;20029;-76
2023/11/01 12:45:04;;;;;;;5.05;2.20;;;11.70;99.90;;;;;;5026683;28;20026;-75
2023/11/01 12:47:43;;;;;;;1.75;1.02;;;11.80;99.90;;;;;;5002902;28;20025;-75
2023/11/01 12:50:10;;;;;;;2.90;1.15;;;11.80;99.90;;;;;;5001523;28;20127;-75
2023/11/01 12:52:36;;;;;;;2.60;1.10;;;11.90;99.90;;;;;;4997889;28;20037;-75
2023/11/01 12:55:03;;;;;;;3.03;1.40;;;11.90;99.90;;;;;;4997550;28;20042;-75
2023/11/01 12:57:29;;;;;;;2.92;1.42;;;11.90;99.90;;;;;;4995832;28;20037;-76